createdAt,value
2018-12-20T00:00:47.415Z,7.26
2018-12-20T00:03:16.887Z,7.61
2018-12-20T00:05:46.336Z,7.88
2018-12-20T00:08:15.461Z,7.75
2018-12-20T00:10:45.012Z,7.55
2018-12-20T00:13:14.337Z,7.75
2018-12-20T00:15:43.707Z,8.05
2018-12-20T00:18:13.226Z,8.27
2018-12-20T00:20:42.508Z,8.29
2018-12-20T00:23:12.031Z,6.94
2018-12-20T00:25:41.297Z,6.45
2018-12-20T00:28:10.733Z,6.80
2018-12-20T00:30:40.234Z,6.20
2018-12-20T00:33:09.693Z,6.09
2018-12-20T00:35:39.043Z,5.99
2018-12-20T00:38:08.374Z,6.39
2018-12-20T00:40:37.843Z,6.95
2018-12-20T00:43:07.190Z,6.42
2018-12-20T00:45:36.440Z,6.25
2018-12-20T00:48:05.679Z,6.13
2018-12-20T00:50:35.089Z,5.93
2018-12-20T00:53:04.530Z,6.35
2018-12-20T00:55:33.921Z,6.96
2018-12-20T00:58:03.157Z,7.33
2018-12-20T01:00:32.423Z,6.99
2018-12-20T01:03:01.684Z,7.02
2018-12-20T01:05:31.006Z,7.36
2018-12-20T01:08:00.493Z,7.75
2018-12-20T01:10:30.005Z,7.85
2018-12-20T01:12:59.392Z,8.25
2018-12-20T01:15:28.523Z,8.53
2018-12-20T01:17:57.750Z,8.71
2018-12-20T01:20:27.296Z,8.83
2018-12-20T01:22:56.614Z,8.80
2018-12-20T01:25:25.704Z,8.83
2018-12-20T01:27:55.123Z,8.82
2018-12-20T01:30:24.382Z,8.84
2018-12-20T01:32:53.700Z,8.83
2018-12-20T01:35:23.379Z,8.93
2018-12-20T01:37:52.676Z,8.92
2018-12-20T01:40:22.135Z,8.95
2018-12-20T01:42:51.475Z,9.04
2018-12-20T01:45:21.043Z,9.08
2018-12-20T01:47:50.363Z,9.04
2018-12-20T01:50:19.671Z,8.95
2018-12-20T01:52:49.176Z,8.86
2018-12-20T01:55:18.908Z,8.90
2018-12-20T01:57:48.208Z,8.85
2018-12-20T02:00:17.537Z,8.14
2018-12-20T02:02:46.905Z,8.25
2018-12-20T02:05:16.547Z,8.54
2018-12-20T02:07:45.764Z,8.60
2018-12-20T02:10:15.186Z,8.74
2018-12-20T02:12:44.652Z,8.84
2018-12-20T02:15:14.058Z,8.65
2018-12-20T02:17:43.272Z,8.55
2018-12-20T02:20:12.947Z,8.73
2018-12-20T02:22:42.338Z,8.60
2018-12-20T02:25:11.648Z,8.70
2018-12-20T02:27:41.027Z,8.82
2018-12-20T02:30:11.828Z,8.23
2018-12-20T02:32:41.071Z,8.49
2018-12-20T02:35:10.679Z,8.69
2018-12-20T02:37:39.797Z,8.87
2018-12-20T02:40:09.136Z,8.41
2018-12-20T02:42:38.788Z,8.33
2018-12-20T02:45:10.935Z,8.45
2018-12-20T02:47:39.503Z,8.43
2018-12-20T02:50:09.206Z,8.07
2018-12-20T02:52:38.532Z,7.92
2018-12-20T02:55:08.266Z,7.87
2018-12-20T02:57:37.897Z,8.04
2018-12-20T03:00:07.668Z,7.45
2018-12-20T03:02:37.083Z,7.16
2018-12-20T03:05:07.136Z,7.42
2018-12-20T03:07:36.844Z,7.73
2018-12-20T03:10:06.305Z,8.19
2018-12-20T03:12:35.635Z,8.22
2018-12-20T03:15:04.943Z,8.19
2018-12-20T03:17:34.478Z,8.41
2018-12-20T03:20:03.970Z,8.57
2018-12-20T03:22:33.527Z,8.73
2018-12-20T03:25:02.813Z,8.84
2018-12-20T03:27:32.146Z,8.75
2018-12-20T03:30:01.565Z,8.51
2018-12-20T03:32:30.850Z,8.47
2018-12-20T03:34:59.990Z,8.53
2018-12-20T03:37:29.391Z,8.73
2018-12-20T03:39:58.939Z,8.93
2018-12-20T03:42:28.686Z,8.96
2018-12-20T03:44:58.056Z,8.85
2018-12-20T03:47:27.471Z,8.85
2018-12-20T03:49:56.704Z,8.92
2018-12-20T03:52:26.018Z,9.03
2018-12-20T03:54:55.640Z,9.10
2018-12-20T03:57:25.150Z,8.78
2018-12-20T03:59:54.534Z,8.88
2018-12-20T04:02:25.442Z,8.77
2018-12-20T04:04:54.792Z,8.97
2018-12-20T04:07:24.043Z,9.01
2018-12-20T04:09:53.405Z,8.31
2018-12-20T04:12:22.832Z,7.69
2018-12-20T04:14:52.022Z,7.91
2018-12-20T04:17:21.697Z,7.50
2018-12-20T04:19:50.825Z,7.28
2018-12-20T04:22:20.117Z,7.13
2018-12-20T04:24:49.607Z,7.33
2018-12-20T04:27:18.797Z,7.64
2018-12-20T04:29:48.104Z,7.71
2018-12-20T04:32:17.431Z,7.55
2018-12-20T04:34:46.996Z,7.83
2018-12-20T04:37:16.655Z,7.58
2018-12-20T04:39:46.092Z,7.74
2018-12-20T04:42:15.420Z,7.72
2018-12-20T04:44:45.152Z,7.65
2018-12-20T04:47:14.662Z,8.01
2018-12-20T04:49:44.194Z,8.49
2018-12-20T04:52:13.613Z,8.42
2018-12-20T04:54:43.205Z,7.73
2018-12-20T04:57:12.393Z,7.58
2018-12-20T04:59:41.913Z,7.89
2018-12-20T05:02:11.566Z,8.32
2018-12-20T05:04:41.136Z,8.72
2018-12-20T05:07:10.598Z,8.72
2018-12-20T05:09:40.086Z,8.20
2018-12-20T05:12:09.583Z,8.53
2018-12-20T05:14:39.302Z,8.80
2018-12-20T05:17:08.717Z,8.91
2018-12-20T05:19:38.210Z,8.92
2018-12-20T05:22:07.526Z,8.89
2018-12-20T05:24:37.423Z,8.88
2018-12-20T05:27:06.905Z,8.91
2018-12-20T05:29:36.460Z,9.03
2018-12-20T05:32:05.746Z,9.14
2018-12-20T05:34:35.271Z,9.03
2018-12-20T05:37:04.651Z,9.10
2018-12-20T05:39:34.178Z,8.76
2018-12-20T05:42:03.581Z,8.88
2018-12-20T05:44:33.205Z,8.98
2018-12-20T05:47:02.940Z,9.17
2018-12-20T05:49:32.603Z,9.28
2018-12-20T05:52:02.207Z,9.23
2018-12-20T05:54:31.847Z,8.49
2018-12-20T05:57:01.475Z,8.71
2018-12-20T05:59:31.393Z,8.75
2018-12-20T06:02:01.093Z,8.75
2018-12-20T06:04:30.984Z,8.85
2018-12-20T06:07:00.238Z,8.88
2018-12-20T06:09:30.087Z,8.96
2018-12-20T06:11:59.708Z,9.00
2018-12-20T06:14:29.512Z,9.12
2018-12-20T06:16:59.022Z,9.25
2018-12-20T06:19:28.666Z,9.32
2018-12-20T06:21:58.344Z,9.39
2018-12-20T06:24:27.695Z,9.38
2018-12-20T06:26:57.084Z,8.97
2018-12-20T06:29:26.188Z,7.94
2018-12-20T06:31:55.461Z,7.77
2018-12-20T06:34:24.843Z,7.66
2018-12-20T06:36:54.737Z,7.86
2018-12-20T06:39:24.536Z,8.26
2018-12-20T06:41:54.367Z,8.56
2018-12-20T06:44:24.183Z,8.73
2018-12-20T06:46:54.184Z,8.89
2018-12-20T06:49:23.799Z,8.95
2018-12-20T06:51:53.307Z,8.74
2018-12-20T06:54:23.354Z,8.73
2018-12-20T06:56:52.906Z,8.55
2018-12-20T06:59:22.691Z,8.21
2018-12-20T07:01:52.264Z,8.20
2018-12-20T07:04:21.707Z,8.39
2018-12-20T07:06:51.067Z,8.30
2018-12-20T07:09:20.628Z,8.40
2018-12-20T07:11:49.756Z,8.41
2018-12-20T07:14:19.183Z,8.56
2018-12-20T07:16:48.500Z,8.74
2018-12-20T07:19:17.691Z,8.85
2018-12-20T07:21:47.158Z,8.97
2018-12-20T07:24:16.718Z,8.97
2018-12-20T07:26:46.046Z,9.06
2018-12-20T07:29:15.480Z,9.23
2018-12-20T07:31:45.176Z,9.39
2018-12-20T07:34:16.230Z,9.41
2018-12-20T07:36:45.763Z,9.46
2018-12-20T07:39:15.091Z,9.50
2018-12-20T07:41:44.644Z,9.50
2018-12-20T07:44:20.862Z,9.47
2018-12-20T07:46:50.099Z,9.43
2018-12-20T07:49:20.092Z,9.54
2018-12-20T07:51:50.040Z,9.31
2018-12-20T07:54:19.650Z,8.65
2018-12-20T07:56:48.955Z,7.64
2018-12-20T07:59:23.454Z,7.76
2018-12-20T08:01:49.996Z,7.74
2018-12-20T08:04:19.395Z,8.29
2018-12-20T08:06:48.680Z,8.51
2018-12-20T08:09:18.213Z,8.48
2018-12-20T08:11:47.683Z,8.61
2018-12-20T08:14:16.934Z,8.85
2018-12-20T08:16:46.435Z,9.06
2018-12-20T08:19:15.875Z,9.01
2018-12-20T08:21:45.431Z,9.22
2018-12-20T08:24:14.657Z,9.42
2018-12-20T08:26:43.916Z,9.44
2018-12-20T08:29:13.789Z,9.38
2018-12-20T08:31:44.433Z,8.83
2018-12-20T08:34:14.848Z,8.50
2018-12-20T08:36:44.544Z,8.93
2018-12-20T08:39:14.435Z,9.18
2018-12-20T08:41:44.641Z,9.44
2018-12-20T08:44:13.763Z,9.25
2018-12-20T08:46:54.116Z,9.44
2018-12-20T08:49:18.314Z,9.56
2018-12-20T08:51:49.204Z,9.76
2018-12-20T08:54:18.836Z,9.20
2018-12-20T08:56:48.073Z,9.42
2018-12-20T08:59:17.424Z,9.59
2018-12-20T09:01:46.805Z,9.67
2018-12-20T09:04:16.313Z,9.81
2018-12-20T09:06:45.443Z,10.00
2018-12-20T09:09:14.799Z,9.79
2018-12-20T09:11:44.042Z,9.18
2018-12-20T09:14:13.347Z,9.31
2018-12-20T09:16:42.686Z,9.66
2018-12-20T09:19:12.063Z,9.25
2018-12-20T09:21:41.550Z,9.08
2018-12-20T09:24:11.008Z,9.13
2018-12-20T09:26:40.352Z,9.52
2018-12-20T09:29:09.735Z,9.76
2018-12-20T09:31:39.103Z,9.89
2018-12-20T09:34:08.368Z,9.83
2018-12-20T09:36:37.760Z,9.84
2018-12-20T09:39:09.128Z,9.92
2018-12-20T09:41:38.508Z,9.97
2018-12-20T09:44:07.993Z,10.04
2018-12-20T09:46:37.442Z,10.10
2018-12-20T09:49:07.171Z,10.12
2018-12-20T09:51:36.524Z,10.11
2018-12-20T09:54:05.719Z,10.27
2018-12-20T09:56:35.269Z,10.33
2018-12-20T09:59:04.507Z,10.40
2018-12-20T10:01:34.171Z,10.49
2018-12-20T10:04:03.544Z,10.56
2018-12-20T10:06:33.006Z,9.88
2018-12-20T10:09:02.203Z,9.91
2018-12-20T10:11:31.565Z,10.20
2018-12-20T10:14:01.107Z,9.42
2018-12-20T10:16:30.717Z,9.34
2018-12-20T10:18:59.901Z,9.86
2018-12-20T10:21:29.476Z,10.21
2018-12-20T10:23:58.703Z,10.52
2018-12-20T10:26:28.050Z,10.57
2018-12-20T10:28:57.376Z,10.69
2018-12-20T10:31:26.796Z,10.65
2018-12-20T10:33:56.051Z,10.54
2018-12-20T10:36:25.297Z,10.78
2018-12-20T10:38:54.574Z,9.72
2018-12-20T10:41:24.014Z,9.91
2018-12-20T10:43:53.467Z,10.45
2018-12-20T10:46:22.920Z,9.96
2018-12-20T10:48:52.256Z,10.01
2018-12-20T10:51:21.700Z,10.45
2018-12-20T10:53:50.916Z,10.33
2018-12-20T10:56:20.438Z,10.72
2018-12-20T10:58:49.864Z,11.08
2018-12-20T11:01:24.247Z,10.88
2018-12-20T11:03:57.420Z,10.66
2018-12-20T11:06:32.024Z,11.05
2018-12-20T11:09:06.289Z,10.75
2018-12-20T11:11:40.982Z,10.58
2018-12-20T11:14:10.328Z,10.55
2018-12-20T11:16:39.613Z,10.89
2018-12-20T11:19:08.779Z,11.06
2018-12-20T11:21:38.072Z,10.77
2018-12-20T11:24:08.439Z,10.78
2018-12-20T11:26:37.784Z,10.38
2018-12-20T11:29:07.016Z,10.39
2018-12-20T11:31:36.340Z,10.48
2018-12-20T11:34:05.655Z,10.42
2018-12-20T11:36:34.934Z,10.68
2018-12-20T11:39:08.454Z,10.77
2018-12-20T11:41:36.900Z,10.56
2018-12-20T11:44:06.756Z,10.80
2018-12-20T11:46:36.425Z,10.66
2018-12-20T11:49:05.630Z,10.65
2018-12-20T11:51:35.004Z,10.42
2018-12-20T11:54:04.384Z,10.51
2018-12-20T11:56:33.717Z,10.41
2018-12-20T11:59:03.113Z,10.58
2018-12-20T12:01:32.564Z,10.81
2018-12-20T12:04:01.920Z,11.37
2018-12-20T12:06:31.234Z,11.78
2018-12-20T12:09:00.570Z,12.21
2018-12-20T12:11:30.207Z,12.35
2018-12-20T12:13:59.740Z,12.17
2018-12-20T12:16:29.143Z,11.88
2018-12-20T12:18:58.612Z,11.54
2018-12-20T12:21:28.040Z,11.83
2018-12-20T12:23:58.059Z,12.02
2018-12-20T12:26:27.371Z,12.11
2018-12-20T12:28:56.778Z,11.86
2018-12-20T12:31:26.460Z,11.86
2018-12-20T12:33:55.925Z,11.69
2018-12-20T12:36:25.358Z,11.59
2018-12-20T12:38:54.980Z,11.32
2018-12-20T12:41:24.181Z,11.65
2018-12-20T12:43:53.833Z,11.70
2018-12-20T12:46:23.171Z,11.59
2018-12-20T12:48:52.640Z,11.19
2018-12-20T12:51:22.086Z,10.97
2018-12-20T12:53:51.664Z,11.14
2018-12-20T12:56:20.914Z,11.24
2018-12-20T12:58:53.085Z,11.09
2018-12-20T13:01:22.354Z,11.08
2018-12-20T13:03:51.695Z,11.59
2018-12-20T13:06:21.478Z,11.81
2018-12-20T13:08:50.747Z,12.17
2018-12-20T13:11:19.980Z,13.10
2018-12-20T13:13:49.231Z,13.18
2018-12-20T13:16:18.602Z,12.57
2018-12-20T13:18:48.116Z,12.31
2018-12-20T13:21:17.349Z,12.12
2018-12-20T13:23:46.741Z,12.08
2018-12-20T13:26:16.261Z,12.12
2018-12-20T13:28:45.635Z,11.76
2018-12-20T13:31:14.904Z,11.44
2018-12-20T13:33:44.513Z,11.53
2018-12-20T13:36:14.132Z,11.63
2018-12-20T13:38:43.423Z,11.31
2018-12-20T13:41:12.805Z,11.46
2018-12-20T13:43:42.140Z,11.43
2018-12-20T13:46:11.688Z,11.35
2018-12-20T13:48:40.917Z,11.37
2018-12-20T13:51:10.357Z,11.48
2018-12-20T13:53:39.917Z,11.56
2018-12-20T13:56:09.552Z,12.35
2018-12-20T13:58:38.892Z,12.75
2018-12-20T14:01:08.286Z,12.65
2018-12-20T14:03:37.547Z,12.29
2018-12-20T14:06:07.133Z,11.54
2018-12-20T14:08:36.445Z,11.25
2018-12-20T14:11:05.731Z,11.04
2018-12-20T14:13:34.973Z,10.94
2018-12-20T14:16:05.417Z,10.79
2018-12-20T14:18:35.356Z,10.89
2018-12-20T14:21:04.814Z,10.77
2018-12-20T14:23:34.341Z,11.00
2018-12-20T14:26:03.858Z,10.97
2018-12-20T14:28:33.088Z,10.95
2018-12-20T14:31:02.337Z,10.83
2018-12-20T14:33:32.814Z,10.98
2018-12-20T14:36:02.411Z,11.17
2018-12-20T14:38:31.606Z,11.37
2018-12-20T14:41:01.175Z,11.61
2018-12-20T14:43:30.500Z,12.05
2018-12-20T14:45:59.775Z,12.05
2018-12-20T14:48:39.057Z,11.86
2018-12-20T14:51:02.211Z,11.73
2018-12-20T14:53:31.438Z,11.87
2018-12-20T14:56:00.700Z,11.82
2018-12-20T14:58:30.187Z,11.51
2018-12-20T15:00:59.448Z,11.74
2018-12-20T15:03:28.806Z,11.93
2018-12-20T15:05:59.143Z,11.58
2018-12-20T15:08:28.660Z,11.40
2018-12-20T15:10:58.007Z,11.72
2018-12-20T15:13:28.178Z,11.92
2018-12-20T15:15:57.371Z,11.82
2018-12-20T15:18:26.751Z,11.79
2018-12-20T15:20:55.908Z,11.75
2018-12-20T15:23:25.495Z,11.85
2018-12-20T15:25:54.938Z,11.87
2018-12-20T15:28:24.890Z,11.91
2018-12-20T15:30:54.128Z,11.92
2018-12-20T15:33:23.431Z,11.90
2018-12-20T15:35:53.125Z,11.90
2018-12-20T15:38:23.440Z,11.92
2018-12-20T15:40:53.464Z,11.89
2018-12-20T15:43:22.829Z,11.87
2018-12-20T15:45:54.130Z,11.83
2018-12-20T15:48:23.724Z,11.83
2018-12-20T15:50:53.262Z,11.77
2018-12-20T15:53:22.869Z,11.66
2018-12-20T15:55:52.889Z,11.52
2018-12-20T15:58:22.908Z,11.38
2018-12-20T16:00:53.099Z,11.22
2018-12-20T16:03:23.060Z,11.14
2018-12-20T16:05:53.604Z,11.12
2018-12-20T16:08:23.185Z,11.12
2018-12-20T16:10:53.697Z,11.13
2018-12-20T16:13:23.443Z,11.16
2018-12-20T16:15:53.608Z,11.18
2018-12-20T16:18:23.548Z,11.12
2018-12-20T16:20:52.964Z,11.12
2018-12-20T16:23:22.198Z,11.16
2018-12-20T16:25:51.840Z,11.23
2018-12-20T16:28:21.179Z,11.22
2018-12-20T16:30:50.428Z,11.12
2018-12-20T16:33:20.564Z,11.12
2018-12-20T16:35:50.674Z,11.11
2018-12-20T16:38:20.416Z,11.08
2018-12-20T16:40:49.792Z,10.98
2018-12-20T16:43:20.092Z,10.98
2018-12-20T16:45:51.689Z,11.02
2018-12-20T16:48:25.079Z,11.04
2018-12-20T16:50:54.640Z,11.00
2018-12-20T16:53:24.199Z,10.96
2018-12-20T16:55:53.819Z,10.97
2018-12-20T16:58:23.379Z,10.89
2018-12-20T17:00:52.894Z,10.87
2018-12-20T17:03:22.242Z,10.79
2018-12-20T17:05:51.722Z,10.77
2018-12-20T17:08:20.918Z,10.79
2018-12-20T17:10:50.154Z,10.83
2018-12-20T17:13:19.397Z,10.85
2018-12-20T17:15:48.951Z,10.80
2018-12-20T17:18:18.116Z,10.78
2018-12-20T17:20:47.642Z,10.73
2018-12-20T17:23:19.114Z,10.67
2018-12-20T17:25:48.500Z,10.58
2018-12-20T17:28:17.699Z,10.45
2018-12-20T17:30:47.192Z,10.48
2018-12-20T17:33:16.388Z,10.54
2018-12-20T17:35:45.907Z,10.47
2018-12-20T17:38:15.191Z,10.54
2018-12-20T17:40:44.524Z,10.62
2018-12-20T17:43:13.916Z,10.66
2018-12-20T17:45:43.269Z,10.71
2018-12-20T17:48:12.817Z,10.63
2018-12-20T17:50:42.360Z,10.63
2018-12-20T17:53:11.795Z,10.63
2018-12-20T17:55:44.955Z,10.67
2018-12-20T17:58:13.398Z,10.73
2018-12-20T18:00:42.883Z,10.76
2018-12-20T18:03:12.165Z,10.77
2018-12-20T18:05:41.525Z,10.74
2018-12-20T18:08:10.853Z,10.70
2018-12-20T18:10:40.385Z,10.72
2018-12-20T18:13:09.687Z,10.67
2018-12-20T18:15:39.020Z,10.62
2018-12-20T18:18:08.403Z,10.44
2018-12-20T18:20:37.869Z,10.46
2018-12-20T18:23:07.063Z,10.46
2018-12-20T18:25:36.396Z,10.51
2018-12-20T18:28:05.619Z,10.53
2018-12-20T18:30:34.960Z,10.54
2018-12-20T18:33:04.231Z,10.53
2018-12-20T18:35:33.540Z,10.50
2018-12-20T18:38:02.931Z,10.49
2018-12-20T18:40:32.313Z,10.39
2018-12-20T18:43:01.899Z,10.37
2018-12-20T18:45:31.373Z,10.41
2018-12-20T18:48:00.875Z,10.50
2018-12-20T18:50:30.320Z,10.49
2018-12-20T18:52:59.871Z,10.55
2018-12-20T18:55:29.123Z,10.63
2018-12-20T18:57:58.632Z,10.79
2018-12-20T19:00:27.908Z,10.85
2018-12-20T19:02:57.309Z,10.78
2018-12-20T19:05:26.713Z,10.72
2018-12-20T19:07:56.285Z,10.67
2018-12-20T19:10:25.668Z,10.70
2018-12-20T19:12:55.289Z,10.61
2018-12-20T19:15:24.593Z,10.68
2018-12-20T19:17:54.411Z,10.78
2018-12-20T19:20:23.790Z,10.84
2018-12-20T19:22:53.201Z,10.61
2018-12-20T19:25:22.816Z,10.53
2018-12-20T19:27:52.206Z,10.62
2018-12-20T19:30:21.651Z,10.58
2018-12-20T19:32:51.540Z,10.27
2018-12-20T19:35:20.979Z,10.38
2018-12-20T19:37:50.251Z,10.37
2018-12-20T19:40:19.690Z,10.16
2018-12-20T19:42:49.103Z,9.82
2018-12-20T19:45:18.311Z,9.53
2018-12-20T19:47:47.516Z,9.79
2018-12-20T19:50:16.810Z,9.68
2018-12-20T19:52:46.280Z,10.07
2018-12-20T19:55:15.825Z,10.25
2018-12-20T19:57:45.439Z,10.50
2018-12-20T20:00:16.696Z,10.62
2018-12-20T20:02:46.461Z,10.74
2018-12-20T20:05:15.691Z,10.77
2018-12-20T20:07:45.256Z,10.84
2018-12-20T20:10:15.144Z,10.68
2018-12-20T20:12:44.845Z,10.68
2018-12-20T20:15:16.758Z,10.80
2018-12-20T20:17:46.325Z,10.64
2018-12-20T20:20:16.041Z,10.86
2018-12-20T20:22:46.058Z,11.05
2018-12-20T20:25:16.102Z,11.07
2018-12-20T20:27:45.525Z,11.13
2018-12-20T20:30:16.612Z,11.15
2018-12-20T20:32:46.183Z,10.96
2018-12-20T20:35:15.899Z,11.03
2018-12-20T20:37:46.126Z,11.11
2018-12-20T20:40:15.831Z,10.67
2018-12-20T20:42:45.574Z,10.54
2018-12-20T20:45:15.302Z,10.77
2018-12-20T20:47:45.097Z,11.01
2018-12-20T20:50:22.000Z,11.15
2018-12-20T20:52:46.616Z,11.17
2018-12-20T20:55:16.416Z,11.13
2018-12-20T20:57:46.701Z,11.06
2018-12-20T21:00:16.314Z,11.16
2018-12-20T21:02:46.239Z,11.08
2018-12-20T21:05:16.021Z,11.07
2018-12-20T21:07:45.544Z,11.17
2018-12-20T21:10:14.804Z,11.24
2018-12-20T21:12:44.175Z,11.41
2018-12-20T21:15:13.860Z,11.49
2018-12-20T21:17:43.187Z,11.47
2018-12-20T21:20:13.823Z,11.37
2018-12-20T21:22:43.031Z,11.33
2018-12-20T21:25:12.417Z,11.43
2018-12-20T21:27:41.800Z,11.46
2018-12-20T21:30:11.826Z,11.47
2018-12-20T21:32:41.188Z,11.50
2018-12-20T21:35:10.657Z,11.41
2018-12-20T21:37:40.250Z,11.39
2018-12-20T21:40:09.871Z,11.39
2018-12-20T21:42:39.011Z,11.25
2018-12-20T21:45:09.859Z,11.29
2018-12-20T21:47:39.261Z,11.35
2018-12-20T21:50:10.584Z,11.42
2018-12-20T21:52:40.413Z,11.21
2018-12-20T21:55:10.413Z,11.35
2018-12-20T21:57:39.972Z,11.52
2018-12-20T22:00:10.754Z,11.57
2018-12-20T22:02:40.276Z,11.51
2018-12-20T22:05:09.700Z,11.59
2018-12-20T22:07:38.984Z,11.65
2018-12-20T22:10:09.031Z,11.64
2018-12-20T22:12:39.047Z,11.55
2018-12-20T22:15:10.600Z,11.52
2018-12-20T22:17:39.853Z,11.47
2018-12-20T22:20:09.099Z,11.32
2018-12-20T22:22:38.360Z,11.18
2018-12-20T22:25:08.269Z,11.16
2018-12-20T22:27:37.544Z,10.80
2018-12-20T22:30:08.732Z,10.65
2018-12-20T22:32:38.110Z,10.03
2018-12-20T22:35:07.271Z,10.32
2018-12-20T22:37:36.744Z,10.64
2018-12-20T22:40:06.796Z,10.54
2018-12-20T22:42:36.072Z,10.72
2018-12-20T22:45:06.253Z,10.03
2018-12-20T22:47:35.612Z,9.27
2018-12-20T22:50:05.092Z,9.07
2018-12-20T22:52:34.389Z,8.80
2018-12-20T22:55:03.887Z,8.92
2018-12-20T22:57:33.235Z,8.84
2018-12-20T23:00:02.486Z,9.18
2018-12-20T23:02:32.210Z,9.56
2018-12-20T23:05:01.484Z,9.56
2018-12-20T23:07:31.114Z,9.50
2018-12-20T23:10:00.576Z,9.61
2018-12-20T23:12:29.793Z,10.00
2018-12-20T23:14:59.524Z,10.31
2018-12-20T23:17:28.879Z,10.47
2018-12-20T23:19:58.237Z,10.63
2018-12-20T23:22:27.772Z,10.71
2018-12-20T23:24:57.552Z,10.89
2018-12-20T23:27:26.949Z,11.02
2018-12-20T23:29:56.592Z,11.02
2018-12-20T23:32:25.880Z,11.14
2018-12-20T23:34:55.203Z,11.17
2018-12-20T23:37:24.455Z,11.24
2018-12-20T23:39:53.837Z,11.28
2018-12-20T23:42:23.399Z,11.01
2018-12-20T23:44:52.729Z,10.93
2018-12-20T23:47:22.031Z,11.07
2018-12-20T23:49:51.571Z,11.05
2018-12-20T23:52:21.315Z,10.47
2018-12-20T23:54:50.792Z,10.61
2018-12-20T23:57:20.071Z,10.82
2018-12-20T23:59:49.520Z,11.10
